sensor_id;sensor_type;location;lat;lon;timestamp;P1;durP1;ratioP1;P2;durP2;ratioP2
74510;SDS011;62991;50.040;18.400;2023-09-18T00:00:21;7.95;;;4.10;;
74510;SDS011;62991;50.040;18.400;2023-09-18T00:03:21;8.55;;;3.88;;
74510;SDS011;62991;50.040;18.400;2023-09-18T00:06:24;6.95;;;4.00;;
74510;SDS011;62991;50.040;18.400;2023-09-18T00:09:25;7.85;;;4.38;;
74510;SDS011;62991;50.040;18.400;2023-09-18T00:12:26;7.35;;;3.83;;
74510;SDS011;62991;50.040;18.400;2023-09-18T00:15:26;7.05;;;3.75;;
74510;SDS011;62991;50.040;18.400;2023-09-18T00:18:27;9.95;;;5.88;;
74510;SDS011;62991;50.040;18.400;2023-09-18T00:21:28;8.00;;;4.32;;
74510;SDS011;62991;50.040;18.400;2023-09-18T00:24:30;10.63;;;4.57;;
74510;SDS011;62991;50.040;18.400;2023-09-18T00:27:31;9.77;;;4.22;;
74510;SDS011;62991;50.040;18.400;2023-09-18T00:30:32;8.02;;;4.43;;
74510;SDS011;62991;50.040;18.400;2023-09-18T00:33:33;7.95;;;4.40;;
74510;SDS011;62991;50.040;18.400;2023-09-18T00:36:34;10.40;;;4.88;;
74510;SDS011;62991;50.040;18.400;2023-09-18T00:39:35;9.25;;;4.57;;
74510;SDS011;62991;50.040;18.400;2023-09-18T00:42:35;8.20;;;4.55;;
74510;SDS011;62991;50.040;18.400;2023-09-18T00:45:40;8.68;;;5.45;;
74510;SDS011;62991;50.040;18.400;2023-09-18T00:48:42;8.30;;;4.95;;
74510;SDS011;62991;50.040;18.400;2023-09-18T00:51:43;7.68;;;4.60;;
74510;SDS011;62991;50.040;18.400;2023-09-18T00:54:44;9.18;;;5.00;;
74510;SDS011;62991;50.040;18.400;2023-09-18T00:57:45;9.45;;;5.20;;
74510;SDS011;62991;50.040;18.400;2023-09-18T01:00:46;10.55;;;4.95;;
74510;SDS011;62991;50.040;18.400;2023-09-18T01:03:51;9.82;;;5.38;;
74510;SDS011;62991;50.040;18.400;2023-09-18T01:06:53;11.38;;;5.45;;
74510;SDS011;62991;50.040;18.400;2023-09-18T01:09:56;10.68;;;5.40;;
74510;SDS011;62991;50.040;18.400;2023-09-18T01:13:04;14.20;;;5.38;;
74510;SDS011;62991;50.040;18.400;2023-09-18T01:16:22;10.75;;;5.03;;
74510;SDS011;62991;50.040;18.400;2023-09-18T01:19:36;7.78;;;4.78;;
74510;SDS011;62991;50.040;18.400;2023-09-18T01:22:47;9.98;;;4.65;;
74510;SDS011;62991;50.040;18.400;2023-09-18T01:25:49;12.32;;;4.85;;
74510;SDS011;62991;50.040;18.400;2023-09-18T01:28:50;9.60;;;5.07;;
74510;SDS011;62991;50.040;18.400;2023-09-18T01:31:51;10.40;;;5.30;;
74510;SDS011;62991;50.040;18.400;2023-09-18T01:34:53;11.68;;;5.35;;
74510;SDS011;62991;50.040;18.400;2023-09-18T01:37:56;11.50;;;5.05;;
74510;SDS011;62991;50.040;18.400;2023-09-18T01:40:59;9.75;;;5.22;;
74510;SDS011;62991;50.040;18.400;2023-09-18T01:44:01;12.55;;;4.85;;
74510;SDS011;62991;50.040;18.400;2023-09-18T01:47:03;10.77;;;5.10;;
74510;SDS011;62991;50.040;18.400;2023-09-18T01:50:06;11.43;;;4.70;;
74510;SDS011;62991;50.040;18.400;2023-09-18T01:53:06;10.15;;;5.30;;
74510;SDS011;62991;50.040;18.400;2023-09-18T01:56:07;9.07;;;4.82;;
74510;SDS011;62991;50.040;18.400;2023-09-18T01:59:08;8.50;;;5.43;;
74510;SDS011;62991;50.040;18.400;2023-09-18T02:02:09;8.75;;;5.13;;
74510;SDS011;62991;50.040;18.400;2023-09-18T02:05:12;13.30;;;5.05;;
74510;SDS011;62991;50.040;18.400;2023-09-18T02:08:12;10.95;;;5.07;;
74510;SDS011;62991;50.040;18.400;2023-09-18T02:11:13;7.32;;;4.35;;
74510;SDS011;62991;50.040;18.400;2023-09-18T02:14:14;9.55;;;5.25;;
74510;SDS011;62991;50.040;18.400;2023-09-18T02:17:15;8.50;;;4.85;;
74510;SDS011;62991;50.040;18.400;2023-09-18T02:20:16;11.13;;;5.03;;
74510;SDS011;62991;50.040;18.400;2023-09-18T02:23:18;7.97;;;4.93;;
74510;SDS011;62991;50.040;18.400;2023-09-18T02:26:19;10.20;;;5.43;;
74510;SDS011;62991;50.040;18.400;2023-09-18T02:29:20;11.18;;;5.40;;
74510;SDS011;62991;50.040;18.400;2023-09-18T02:32:21;10.63;;;4.93;;
74510;SDS011;62991;50.040;18.400;2023-09-18T02:35:22;11.02;;;4.95;;
74510;SDS011;62991;50.040;18.400;2023-09-18T02:38:22;12.02;;;4.70;;
74510;SDS011;62991;50.040;18.400;2023-09-18T02:41:23;9.15;;;5.07;;
74510;SDS011;62991;50.040;18.400;2023-09-18T02:44:24;9.25;;;5.10;;
74510;SDS011;62991;50.040;18.400;2023-09-18T02:47:24;7.72;;;4.50;;
74510;SDS011;62991;50.040;18.400;2023-09-18T02:50:26;9.35;;;4.88;;
74510;SDS011;62991;50.040;18.400;2023-09-18T02:53:26;7.88;;;4.45;;
74510;SDS011;62991;50.040;18.400;2023-09-18T02:56:27;9.07;;;4.80;;
74510;SDS011;62991;50.040;18.400;2023-09-18T02:59:28;8.68;;;5.05;;
74510;SDS011;62991;50.040;18.400;2023-09-18T03:02:29;10.00;;;5.38;;
74510;SDS011;62991;50.040;18.400;2023-09-18T03:05:31;11.43;;;5.20;;
74510;SDS011;62991;50.040;18.400;2023-09-18T03:08:32;10.88;;;5.40;;
74510;SDS011;62991;50.040;18.400;2023-09-18T03:11:32;9.52;;;5.05;;
74510;SDS011;62991;50.040;18.400;2023-09-18T03:14:33;8.98;;;5.38;;
74510;SDS011;62991;50.040;18.400;2023-09-18T03:17:34;7.28;;;5.32;;
74510;SDS011;62991;50.040;18.400;2023-09-18T03:20:35;8.82;;;5.18;;
74510;SDS011;62991;50.040;18.400;2023-09-18T03:23:35;11.52;;;5.38;;
74510;SDS011;62991;50.040;18.400;2023-09-18T03:26:36;8.65;;;5.20;;
74510;SDS011;62991;50.040;18.400;2023-09-18T03:29:37;11.15;;;5.90;;
74510;SDS011;62991;50.040;18.400;2023-09-18T03:32:38;8.63;;;5.68;;
74510;SDS011;62991;50.040;18.400;2023-09-18T03:35:45;9.45;;;5.47;;
74510;SDS011;62991;50.040;18.400;2023-09-18T03:38:47;10.77;;;5.88;;
74510;SDS011;62991;50.040;18.400;2023-09-18T03:41:48;10.45;;;5.97;;
74510;SDS011;62991;50.040;18.400;2023-09-18T03:44:49;9.32;;;5.20;;
74510;SDS011;62991;50.040;18.400;2023-09-18T03:47:49;9.57;;;5.93;;
74510;SDS011;62991;50.040;18.400;2023-09-18T03:50:51;10.45;;;6.05;;
74510;SDS011;62991;50.040;18.400;2023-09-18T03:53:51;9.82;;;5.68;;
74510;SDS011;62991;50.040;18.400;2023-09-18T03:56:52;8.93;;;5.25;;
74510;SDS011;62991;50.040;18.400;2023-09-18T03:59:53;11.20;;;5.60;;
74510;SDS011;62991;50.040;18.400;2023-09-18T04:02:54;9.98;;;5.70;;
74510;SDS011;62991;50.040;18.400;2023-09-18T04:05:54;10.70;;;5.80;;
74510;SDS011;62991;50.040;18.400;2023-09-18T04:08:55;9.13;;;5.45;;
74510;SDS011;62991;50.040;18.400;2023-09-18T04:11:56;9.27;;;5.20;;
74510;SDS011;62991;50.040;18.400;2023-09-18T04:14:56;11.68;;;5.47;;
74510;SDS011;62991;50.040;18.400;2023-09-18T04:17:57;9.38;;;5.65;;
74510;SDS011;62991;50.040;18.400;2023-09-18T04:20:58;11.77;;;5.50;;
74510;SDS011;62991;50.040;18.400;2023-09-18T04:23:58;10.48;;;5.60;;
74510;SDS011;62991;50.040;18.400;2023-09-18T04:26:59;10.93;;;5.85;;
74510;SDS011;62991;50.040;18.400;2023-09-18T04:30:00;9.70;;;5.63;;
74510;SDS011;62991;50.040;18.400;2023-09-18T04:33:00;10.32;;;5.82;;
74510;SDS011;62991;50.040;18.400;2023-09-18T04:36:01;10.65;;;5.97;;
74510;SDS011;62991;50.040;18.400;2023-09-18T04:39:02;10.05;;;5.80;;
74510;SDS011;62991;50.040;18.400;2023-09-18T04:42:04;12.73;;;5.95;;
74510;SDS011;62991;50.040;18.400;2023-09-18T04:45:05;10.05;;;6.05;;
74510;SDS011;62991;50.040;18.400;2023-09-18T04:48:06;11.25;;;6.22;;
74510;SDS011;62991;50.040;18.400;2023-09-18T04:51:08;11.73;;;5.88;;
74510;SDS011;62991;50.040;18.400;2023-09-18T04:54:08;13.50;;;5.80;;
74510;SDS011;62991;50.040;18.400;2023-09-18T04:57:09;10.60;;;5.22;;
74510;SDS011;62991;50.040;18.400;2023-09-18T05:00:10;10.52;;;6.15;;
74510;SDS011;62991;50.040;18.400;2023-09-18T05:03:13;14.45;;;6.45;;
74510;SDS011;62991;50.040;18.400;2023-09-18T05:06:15;11.95;;;6.18;;
74510;SDS011;62991;50.040;18.400;2023-09-18T05:09:16;12.05;;;6.30;;
74510;SDS011;62991;50.040;18.400;2023-09-18T05:12:17;10.60;;;6.05;;
74510;SDS011;62991;50.040;18.400;2023-09-18T05:15:17;11.10;;;6.30;;
74510;SDS011;62991;50.040;18.400;2023-09-18T05:18:18;10.85;;;6.57;;
74510;SDS011;62991;50.040;18.400;2023-09-18T05:21:19;10.23;;;5.50;;
74510;SDS011;62991;50.040;18.400;2023-09-18T05:24:24;10.93;;;6.25;;
74510;SDS011;62991;50.040;18.400;2023-09-18T05:27:27;11.20;;;6.10;;
74510;SDS011;62991;50.040;18.400;2023-09-18T05:30:28;12.38;;;6.05;;
74510;SDS011;62991;50.040;18.400;2023-09-18T05:33:34;14.15;;;7.63;;
74510;SDS011;62991;50.040;18.400;2023-09-18T05:36:35;15.30;;;6.63;;
74510;SDS011;62991;50.040;18.400;2023-09-18T05:39:35;10.95;;;6.00;;
74510;SDS011;62991;50.040;18.400;2023-09-18T05:42:40;10.18;;;6.10;;
74510;SDS011;62991;50.040;18.400;2023-09-18T05:45:44;9.65;;;6.07;;
74510;SDS011;62991;50.040;18.400;2023-09-18T05:48:45;13.10;;;5.82;;
74510;SDS011;62991;50.040;18.400;2023-09-18T05:51:45;12.70;;;6.22;;
74510;SDS011;62991;50.040;18.400;2023-09-18T05:54:49;12.35;;;6.43;;
74510;SDS011;62991;50.040;18.400;2023-09-18T05:57:49;12.23;;;6.72;;
74510;SDS011;62991;50.040;18.400;2023-09-18T06:00:50;10.88;;;5.97;;
74510;SDS011;62991;50.040;18.400;2023-09-18T06:03:51;9.05;;;5.78;;
74510;SDS011;62991;50.040;18.400;2023-09-18T06:06:51;11.80;;;6.72;;
74510;SDS011;62991;50.040;18.400;2023-09-18T06:09:52;10.75;;;6.15;;
74510;SDS011;62991;50.040;18.400;2023-09-18T06:12:53;9.45;;;5.75;;
74510;SDS011;62991;50.040;18.400;2023-09-18T06:15:55;11.15;;;6.07;;
74510;SDS011;62991;50.040;18.400;2023-09-18T06:18:56;8.63;;;5.10;;
74510;SDS011;62991;50.040;18.400;2023-09-18T06:21:57;12.48;;;6.80;;
74510;SDS011;62991;50.040;18.400;2023-09-18T06:24:57;9.90;;;6.28;;
74510;SDS011;62991;50.040;18.400;2023-09-18T06:27:58;11.45;;;6.28;;
74510;SDS011;62991;50.040;18.400;2023-09-18T06:31:00;12.23;;;6.00;;
74510;SDS011;62991;50.040;18.400;2023-09-18T06:34:01;12.07;;;5.60;;
74510;SDS011;62991;50.040;18.400;2023-09-18T06:37:02;8.23;;;5.22;;
74510;SDS011;62991;50.040;18.400;2023-09-18T06:40:04;14.52;;;6.93;;
74510;SDS011;62991;50.040;18.400;2023-09-18T06:43:05;13.40;;;6.53;;
74510;SDS011;62991;50.040;18.400;2023-09-18T06:46:07;11.98;;;6.00;;
74510;SDS011;62991;50.040;18.400;2023-09-18T06:49:08;10.68;;;6.55;;
74510;SDS011;62991;50.040;18.400;2023-09-18T06:52:09;12.02;;;6.20;;
74510;SDS011;62991;50.040;18.400;2023-09-18T06:55:10;11.45;;;6.38;;
74510;SDS011;62991;50.040;18.400;2023-09-18T06:58:10;10.95;;;6.47;;
74510;SDS011;62991;50.040;18.400;2023-09-18T07:01:11;15.45;;;7.75;;
74510;SDS011;62991;50.040;18.400;2023-09-18T07:04:12;12.07;;;6.55;;
74510;SDS011;62991;50.040;18.400;2023-09-18T07:07:12;14.85;;;7.50;;
74510;SDS011;62991;50.040;18.400;2023-09-18T07:10:13;12.68;;;6.60;;
74510;SDS011;62991;50.040;18.400;2023-09-18T07:13:14;10.95;;;6.72;;
74510;SDS011;62991;50.040;18.400;2023-09-18T07:16:15;11.55;;;6.00;;
74510;SDS011;62991;50.040;18.400;2023-09-18T07:19:16;12.00;;;6.90;;
74510;SDS011;62991;50.040;18.400;2023-09-18T07:22:16;11.50;;;6.70;;
74510;SDS011;62991;50.040;18.400;2023-09-18T07:25:17;12.65;;;7.35;;
74510;SDS011;62991;50.040;18.400;2023-09-18T07:28:18;13.18;;;7.28;;
74510;SDS011;62991;50.040;18.400;2023-09-18T07:31:20;13.77;;;8.23;;
74510;SDS011;62991;50.040;18.400;2023-09-18T07:34:20;14.73;;;7.32;;
74510;SDS011;62991;50.040;18.400;2023-09-18T07:37:21;14.27;;;7.15;;
74510;SDS011;62991;50.040;18.400;2023-09-18T07:40:22;13.38;;;6.93;;
74510;SDS011;62991;50.040;18.400;2023-09-18T07:43:24;15.25;;;7.30;;
74510;SDS011;62991;50.040;18.400;2023-09-18T07:46:25;13.50;;;7.32;;
74510;SDS011;62991;50.040;18.400;2023-09-18T07:49:25;14.95;;;7.20;;
74510;SDS011;62991;50.040;18.400;2023-09-18T07:52:26;13.55;;;6.78;;
74510;SDS011;62991;50.040;18.400;2023-09-18T07:55:27;15.52;;;8.20;;
74510;SDS011;62991;50.040;18.400;2023-09-18T07:58:29;12.73;;;6.82;;
74510;SDS011;62991;50.040;18.400;2023-09-18T08:01:31;13.80;;;7.10;;
74510;SDS011;62991;50.040;18.400;2023-09-18T08:04:31;10.75;;;6.40;;
74510;SDS011;62991;50.040;18.400;2023-09-18T08:07:32;12.40;;;6.63;;
74510;SDS011;62991;50.040;18.400;2023-09-18T08:10:36;13.30;;;7.25;;
74510;SDS011;62991;50.040;18.400;2023-09-18T08:16:38;12.32;;;7.35;;
74510;SDS011;62991;50.040;18.400;2023-09-18T08:19:39;11.88;;;7.18;;
74510;SDS011;62991;50.040;18.400;2023-09-18T08:22:41;15.13;;;8.45;;
74510;SDS011;62991;50.040;18.400;2023-09-18T08:25:43;11.70;;;7.13;;
74510;SDS011;62991;50.040;18.400;2023-09-18T08:28:43;13.88;;;7.95;;
74510;SDS011;62991;50.040;18.400;2023-09-18T08:31:44;17.10;;;8.80;;
74510;SDS011;62991;50.040;18.400;2023-09-18T08:34:45;13.57;;;7.60;;
74510;SDS011;62991;50.040;18.400;2023-09-18T08:37:46;14.30;;;8.07;;
74510;SDS011;62991;50.040;18.400;2023-09-18T08:40:46;16.73;;;7.93;;
74510;SDS011;62991;50.040;18.400;2023-09-18T08:43:47;13.57;;;8.02;;
74510;SDS011;62991;50.040;18.400;2023-09-18T08:46:50;12.50;;;7.78;;
74510;SDS011;62991;50.040;18.400;2023-09-18T08:49:50;16.13;;;8.00;;
74510;SDS011;62991;50.040;18.400;2023-09-18T08:52:53;12.65;;;7.28;;
74510;SDS011;62991;50.040;18.400;2023-09-18T08:55:54;14.60;;;7.93;;
74510;SDS011;62991;50.040;18.400;2023-09-18T08:58:58;13.43;;;7.43;;
74510;SDS011;62991;50.040;18.400;2023-09-18T09:02:00;16.42;;;8.00;;
74510;SDS011;62991;50.040;18.400;2023-09-18T09:05:01;17.80;;;8.23;;
74510;SDS011;62991;50.040;18.400;2023-09-18T09:08:01;14.38;;;7.53;;
74510;SDS011;62991;50.040;18.400;2023-09-18T09:11:03;15.45;;;8.20;;
74510;SDS011;62991;50.040;18.400;2023-09-18T09:14:10;14.95;;;8.27;;
74510;SDS011;62991;50.040;18.400;2023-09-18T09:17:18;16.23;;;8.38;;
74510;SDS011;62991;50.040;18.400;2023-09-18T09:20:18;12.65;;;7.18;;
74510;SDS011;62991;50.040;18.400;2023-09-18T09:23:19;13.23;;;7.65;;
74510;SDS011;62991;50.040;18.400;2023-09-18T09:26:21;14.23;;;8.23;;
74510;SDS011;62991;50.040;18.400;2023-09-18T09:29:23;12.43;;;7.47;;
74510;SDS011;62991;50.040;18.400;2023-09-18T09:32:24;17.08;;;8.40;;
74510;SDS011;62991;50.040;18.400;2023-09-18T09:35:25;13.45;;;7.30;;
74510;SDS011;62991;50.040;18.400;2023-09-18T09:38:29;15.02;;;7.97;;
74510;SDS011;62991;50.040;18.400;2023-09-18T09:41:33;13.48;;;7.93;;
74510;SDS011;62991;50.040;18.400;2023-09-18T09:44:35;13.90;;;7.57;;
74510;SDS011;62991;50.040;18.400;2023-09-18T09:47:36;12.65;;;7.10;;
74510;SDS011;62991;50.040;18.400;2023-09-18T09:50:43;12.35;;;7.15;;
74510;SDS011;62991;50.040;18.400;2023-09-18T09:53:48;12.52;;;6.68;;
74510;SDS011;62991;50.040;18.400;2023-09-18T09:56:51;13.32;;;6.88;;
74510;SDS011;62991;50.040;18.400;2023-09-18T09:59:52;12.10;;;7.35;;
74510;SDS011;62991;50.040;18.400;2023-09-18T10:03:06;12.52;;;7.47;;
74510;SDS011;62991;50.040;18.400;2023-09-18T10:06:08;14.10;;;7.95;;
74510;SDS011;62991;50.040;18.400;2023-09-18T10:09:13;12.20;;;7.55;;
74510;SDS011;62991;50.040;18.400;2023-09-18T10:12:16;12.32;;;7.60;;
74510;SDS011;62991;50.040;18.400;2023-09-18T10:15:20;14.13;;;7.93;;
74510;SDS011;62991;50.040;18.400;2023-09-18T10:18:27;13.40;;;7.70;;
74510;SDS011;62991;50.040;18.400;2023-09-18T10:25:03;19.55;;;8.48;;
74510;SDS011;62991;50.040;18.400;2023-09-18T10:28:11;14.13;;;8.48;;
74510;SDS011;62991;50.040;18.400;2023-09-18T10:31:15;12.65;;;6.63;;
74510;SDS011;62991;50.040;18.400;2023-09-18T10:34:16;13.32;;;7.60;;
74510;SDS011;62991;50.040;18.400;2023-09-18T10:37:18;11.68;;;7.40;;
74510;SDS011;62991;50.040;18.400;2023-09-18T10:40:20;13.07;;;7.18;;
74510;SDS011;62991;50.040;18.400;2023-09-18T10:43:22;11.80;;;6.60;;
74510;SDS011;62991;50.040;18.400;2023-09-18T10:46:24;14.68;;;7.13;;
74510;SDS011;62991;50.040;18.400;2023-09-18T10:49:26;11.25;;;6.97;;
74510;SDS011;62991;50.040;18.400;2023-09-18T10:52:27;12.88;;;6.35;;
74510;SDS011;62991;50.040;18.400;2023-09-18T10:55:28;11.85;;;6.97;;
74510;SDS011;62991;50.040;18.400;2023-09-18T10:58:29;12.32;;;7.38;;
74510;SDS011;62991;50.040;18.400;2023-09-18T11:01:30;14.85;;;6.85;;
74510;SDS011;62991;50.040;18.400;2023-09-18T11:04:31;14.80;;;7.55;;
74510;SDS011;62991;50.040;18.400;2023-09-18T11:07:32;14.57;;;7.25;;
74510;SDS011;62991;50.040;18.400;2023-09-18T11:10:32;12.50;;;7.65;;
74510;SDS011;62991;50.040;18.400;2023-09-18T11:13:38;11.48;;;5.95;;
74510;SDS011;62991;50.040;18.400;2023-09-18T11:16:46;9.30;;;5.53;;
74510;SDS011;62991;50.040;18.400;2023-09-18T11:19:49;13.02;;;6.55;;
74510;SDS011;62991;50.040;18.400;2023-09-18T11:26:35;12.18;;;6.45;;
74510;SDS011;62991;50.040;18.400;2023-09-18T11:29:36;11.38;;;6.72;;
74510;SDS011;62991;50.040;18.400;2023-09-18T11:32:37;10.90;;;6.40;;
74510;SDS011;62991;50.040;18.400;2023-09-18T11:35:49;8.40;;;5.53;;
74510;SDS011;62991;50.040;18.400;2023-09-18T11:38:53;9.20;;;6.03;;
74510;SDS011;62991;50.040;18.400;2023-09-18T11:41:57;11.70;;;5.80;;
74510;SDS011;62991;50.040;18.400;2023-09-18T11:45:18;9.45;;;5.65;;
74510;SDS011;62991;50.040;18.400;2023-09-18T11:48:19;8.70;;;5.50;;
74510;SDS011;62991;50.040;18.400;2023-09-18T11:51:21;9.52;;;5.32;;
74510;SDS011;62991;50.040;18.400;2023-09-18T11:54:23;10.85;;;5.70;;
74510;SDS011;62991;50.040;18.400;2023-09-18T11:57:24;11.90;;;5.80;;
74510;SDS011;62991;50.040;18.400;2023-09-18T12:00:25;11.55;;;6.50;;
74510;SDS011;62991;50.040;18.400;2023-09-18T12:03:27;9.40;;;5.95;;
74510;SDS011;62991;50.040;18.400;2023-09-18T12:06:28;10.75;;;6.15;;
74510;SDS011;62991;50.040;18.400;2023-09-18T12:09:32;10.52;;;6.28;;
74510;SDS011;62991;50.040;18.400;2023-09-18T12:12:33;11.27;;;5.32;;
74510;SDS011;62991;50.040;18.400;2023-09-18T12:15:34;10.18;;;6.07;;
74510;SDS011;62991;50.040;18.400;2023-09-18T12:18:35;12.77;;;6.25;;
74510;SDS011;62991;50.040;18.400;2023-09-18T12:21:41;8.95;;;5.60;;
74510;SDS011;62991;50.040;18.400;2023-09-18T12:24:42;9.00;;;5.65;;
74510;SDS011;62991;50.040;18.400;2023-09-18T12:27:45;9.88;;;5.82;;
74510;SDS011;62991;50.040;18.400;2023-09-18T12:30:45;10.60;;;6.07;;
74510;SDS011;62991;50.040;18.400;2023-09-18T12:33:46;9.85;;;6.60;;
74510;SDS011;62991;50.040;18.400;2023-09-18T12:36:48;10.07;;;6.15;;
74510;SDS011;62991;50.040;18.400;2023-09-18T12:39:50;10.95;;;5.72;;
74510;SDS011;62991;50.040;18.400;2023-09-18T12:42:53;12.60;;;5.95;;
74510;SDS011;62991;50.040;18.400;2023-09-18T12:45:55;8.52;;;5.28;;
74510;SDS011;62991;50.040;18.400;2023-09-18T12:48:56;8.70;;;5.72;;
74510;SDS011;62991;50.040;18.400;2023-09-18T12:51:57;10.15;;;5.65;;
74510;SDS011;62991;50.040;18.400;2023-09-18T12:54:59;7.95;;;5.28;;
74510;SDS011;62991;50.040;18.400;2023-09-18T12:58:02;11.63;;;6.75;;
74510;SDS011;62991;50.040;18.400;2023-09-18T13:01:07;11.90;;;6.15;;
74510;SDS011;62991;50.040;18.400;2023-09-18T13:04:11;9.93;;;5.65;;
74510;SDS011;62991;50.040;18.400;2023-09-18T13:07:13;9.50;;;5.10;;
74510;SDS011;62991;50.040;18.400;2023-09-18T13:10:14;12.20;;;5.53;;
74510;SDS011;62991;50.040;18.400;2023-09-18T13:13:18;9.85;;;5.72;;
74510;SDS011;62991;50.040;18.400;2023-09-18T13:16:21;10.70;;;5.18;;
74510;SDS011;62991;50.040;18.400;2023-09-18T13:19:22;8.32;;;5.15;;
74510;SDS011;62991;50.040;18.400;2023-09-18T13:22:24;7.93;;;4.93;;
74510;SDS011;62991;50.040;18.400;2023-09-18T13:25:26;7.78;;;5.22;;
74510;SDS011;62991;50.040;18.400;2023-09-18T13:28:29;10.40;;;5.18;;
74510;SDS011;62991;50.040;18.400;2023-09-18T13:31:34;11.07;;;4.65;;
74510;SDS011;62991;50.040;18.400;2023-09-18T13:34:35;12.80;;;5.13;;
74510;SDS011;62991;50.040;18.400;2023-09-18T13:37:37;9.48;;;4.95;;
74510;SDS011;62991;50.040;18.400;2023-09-18T13:40:38;13.15;;;5.80;;
74510;SDS011;62991;50.040;18.400;2023-09-18T13:43:39;8.13;;;4.70;;
74510;SDS011;62991;50.040;18.400;2023-09-18T13:46:40;10.52;;;4.78;;
74510;SDS011;62991;50.040;18.400;2023-09-18T13:49:41;7.75;;;4.80;;
74510;SDS011;62991;50.040;18.400;2023-09-18T13:52:42;8.18;;;4.90;;
74510;SDS011;62991;50.040;18.400;2023-09-18T13:55:42;9.63;;;5.45;;
74510;SDS011;62991;50.040;18.400;2023-09-18T13:58:43;10.65;;;5.32;;
74510;SDS011;62991;50.040;18.400;2023-09-18T14:01:44;7.82;;;5.07;;
74510;SDS011;62991;50.040;18.400;2023-09-18T14:04:44;7.43;;;5.00;;
74510;SDS011;62991;50.040;18.400;2023-09-18T14:07:46;6.90;;;4.80;;
74510;SDS011;62991;50.040;18.400;2023-09-18T14:10:47;7.55;;;4.75;;
74510;SDS011;62991;50.040;18.400;2023-09-18T14:13:48;8.10;;;4.90;;
74510;SDS011;62991;50.040;18.400;2023-09-18T14:16:48;9.30;;;4.72;;
74510;SDS011;62991;50.040;18.400;2023-09-18T14:19:53;8.27;;;5.20;;
74510;SDS011;62991;50.040;18.400;2023-09-18T14:22:54;9.90;;;6.05;;
74510;SDS011;62991;50.040;18.400;2023-09-18T14:25:55;17.83;;;8.93;;
74510;SDS011;62991;50.040;18.400;2023-09-18T14:28:55;10.65;;;5.30;;
74510;SDS011;62991;50.040;18.400;2023-09-18T14:31:56;9.80;;;5.53;;
74510;SDS011;62991;50.040;18.400;2023-09-18T14:34:57;10.98;;;5.63;;
74510;SDS011;62991;50.040;18.400;2023-09-18T14:38:01;8.80;;;5.35;;
74510;SDS011;62991;50.040;18.400;2023-09-18T14:41:05;9.02;;;5.57;;
74510;SDS011;62991;50.040;18.400;2023-09-18T14:44:07;11.32;;;5.47;;
74510;SDS011;62991;50.040;18.400;2023-09-18T14:47:09;9.32;;;5.78;;
74510;SDS011;62991;50.040;18.400;2023-09-18T14:50:10;8.73;;;5.35;;
74510;SDS011;62991;50.040;18.400;2023-09-18T14:53:11;8.75;;;5.10;;
74510;SDS011;62991;50.040;18.400;2023-09-18T14:56:12;6.63;;;4.07;;
74510;SDS011;62991;50.040;18.400;2023-09-18T14:59:13;9.15;;;4.82;;
74510;SDS011;62991;50.040;18.400;2023-09-18T15:02:14;10.55;;;6.30;;
74510;SDS011;62991;50.040;18.400;2023-09-18T15:05:16;9.95;;;5.60;;
74510;SDS011;62991;50.040;18.400;2023-09-18T15:08:18;9.25;;;5.18;;
74510;SDS011;62991;50.040;18.400;2023-09-18T15:11:19;9.35;;;4.88;;
74510;SDS011;62991;50.040;18.400;2023-09-18T15:14:20;10.75;;;5.28;;
74510;SDS011;62991;50.040;18.400;2023-09-18T15:17:21;9.40;;;5.82;;
74510;SDS011;62991;50.040;18.400;2023-09-18T15:20:21;12.32;;;6.38;;
74510;SDS011;62991;50.040;18.400;2023-09-18T15:23:26;10.40;;;6.47;;
74510;SDS011;62991;50.040;18.400;2023-09-18T15:26:26;9.55;;;5.78;;
74510;SDS011;62991;50.040;18.400;2023-09-18T15:29:27;11.25;;;7.50;;
74510;SDS011;62991;50.040;18.400;2023-09-18T15:32:30;12.98;;;7.70;;
74510;SDS011;62991;50.040;18.400;2023-09-18T15:35:45;18.48;;;7.30;;
74510;SDS011;62991;50.040;18.400;2023-09-18T15:38:45;15.45;;;6.82;;
74510;SDS011;62991;50.040;18.400;2023-09-18T15:41:46;12.02;;;5.82;;
74510;SDS011;62991;50.040;18.400;2023-09-18T15:44:47;11.73;;;6.20;;
74510;SDS011;62991;50.040;18.400;2023-09-18T15:47:48;15.98;;;6.78;;
74510;SDS011;62991;50.040;18.400;2023-09-18T15:50:48;12.00;;;6.80;;
74510;SDS011;62991;50.040;18.400;2023-09-18T15:53:49;12.40;;;5.90;;
74510;SDS011;62991;50.040;18.400;2023-09-18T15:56:49;17.90;;;5.93;;
74510;SDS011;62991;50.040;18.400;2023-09-18T15:59:50;11.90;;;5.72;;
74510;SDS011;62991;50.040;18.400;2023-09-18T16:02:51;14.55;;;6.45;;
74510;SDS011;62991;50.040;18.400;2023-09-18T16:05:52;13.18;;;6.05;;
74510;SDS011;62991;50.040;18.400;2023-09-18T16:08:53;12.98;;;6.47;;
74510;SDS011;62991;50.040;18.400;2023-09-18T16:11:56;9.65;;;5.45;;
74510;SDS011;62991;50.040;18.400;2023-09-18T16:14:57;15.70;;;6.90;;
74510;SDS011;62991;50.040;18.400;2023-09-18T16:17:58;14.80;;;6.82;;
74510;SDS011;62991;50.040;18.400;2023-09-18T16:20:58;18.30;;;7.68;;
74510;SDS011;62991;50.040;18.400;2023-09-18T16:23:59;13.68;;;7.03;;
74510;SDS011;62991;50.040;18.400;2023-09-18T16:27:00;11.20;;;6.68;;
74510;SDS011;62991;50.040;18.400;2023-09-18T16:30:01;13.02;;;6.05;;
74510;SDS011;62991;50.040;18.400;2023-09-18T16:33:03;11.98;;;6.18;;
74510;SDS011;62991;50.040;18.400;2023-09-18T16:36:04;11.35;;;6.07;;
74510;SDS011;62991;50.040;18.400;2023-09-18T16:39:05;14.10;;;5.60;;
74510;SDS011;62991;50.040;18.400;2023-09-18T16:42:05;12.30;;;6.28;;
74510;SDS011;62991;50.040;18.400;2023-09-18T16:45:06;10.68;;;6.03;;
74510;SDS011;62991;50.040;18.400;2023-09-18T16:48:07;15.13;;;6.68;;
74510;SDS011;62991;50.040;18.400;2023-09-18T16:51:08;12.40;;;7.35;;
74510;SDS011;62991;50.040;18.400;2023-09-18T16:54:09;15.32;;;6.80;;
74510;SDS011;62991;50.040;18.400;2023-09-18T16:57:11;12.68;;;6.20;;
74510;SDS011;62991;50.040;18.400;2023-09-18T17:00:13;12.02;;;6.65;;
74510;SDS011;62991;50.040;18.400;2023-09-18T17:03:13;11.27;;;6.75;;
74510;SDS011;62991;50.040;18.400;2023-09-18T17:06:14;10.73;;;5.90;;
74510;SDS011;62991;50.040;18.400;2023-09-18T17:09:20;12.65;;;6.80;;
74510;SDS011;62991;50.040;18.400;2023-09-18T17:12:20;13.68;;;6.47;;
74510;SDS011;62991;50.040;18.400;2023-09-18T17:15:22;15.68;;;6.78;;
74510;SDS011;62991;50.040;18.400;2023-09-18T17:18:26;14.02;;;6.65;;
74510;SDS011;62991;50.040;18.400;2023-09-18T17:21:26;16.52;;;6.85;;
74510;SDS011;62991;50.040;18.400;2023-09-18T17:24:27;10.50;;;5.90;;
74510;SDS011;62991;50.040;18.400;2023-09-18T17:27:28;13.02;;;5.88;;
74510;SDS011;62991;50.040;18.400;2023-09-18T17:30:29;11.82;;;6.35;;
74510;SDS011;62991;50.040;18.400;2023-09-18T17:33:31;11.30;;;6.10;;
74510;SDS011;62991;50.040;18.400;2023-09-18T17:36:31;13.13;;;6.47;;
74510;SDS011;62991;50.040;18.400;2023-09-18T17:39:32;11.73;;;6.07;;
74510;SDS011;62991;50.040;18.400;2023-09-18T17:42:33;11.30;;;6.40;;
74510;SDS011;62991;50.040;18.400;2023-09-18T17:45:33;11.70;;;6.63;;
74510;SDS011;62991;50.040;18.400;2023-09-18T17:48:34;16.02;;;8.43;;
74510;SDS011;62991;50.040;18.400;2023-09-18T17:51:35;16.52;;;9.93;;
74510;SDS011;62991;50.040;18.400;2023-09-18T17:54:36;19.20;;;10.85;;
74510;SDS011;62991;50.040;18.400;2023-09-18T17:57:37;16.17;;;8.02;;